sensor_id;sensor_type;location;lat;lon;timestamp;temperature;humidity
16625;DHT22;8426;48.496;9.098;2022-07-10T00:04:44;16.90;99.90
16625;DHT22;8426;48.496;9.098;2022-07-10T00:09:48;16.90;99.90
16625;DHT22;8426;48.496;9.098;2022-07-10T00:14:51;16.80;99.90
16625;DHT22;8426;48.496;9.098;2022-07-10T00:19:57;16.80;99.90
16625;DHT22;8426;48.496;9.098;2022-07-10T00:25:00;16.70;99.90
16625;DHT22;8426;48.496;9.098;2022-07-10T00:30:04;16.50;99.90
16625;DHT22;8426;48.496;9.098;2022-07-10T00:35:10;16.40;99.90
16625;DHT22;8426;48.496;9.098;2022-07-10T00:40:13;16.40;99.90
16625;DHT22;8426;48.496;9.098;2022-07-10T00:45:16;16.20;99.90
16625;DHT22;8426;48.496;9.098;2022-07-10T00:50:25;16.30;99.90
16625;DHT22;8426;48.496;9.098;2022-07-10T00:55:29;16.20;99.90
16625;DHT22;8426;48.496;9.098;2022-07-10T01:00:33;16.20;99.90
16625;DHT22;8426;48.496;9.098;2022-07-10T01:05:40;16.20;99.90
16625;DHT22;8426;48.496;9.098;2022-07-10T01:10:44;16.20;99.90
16625;DHT22;8426;48.496;9.098;2022-07-10T01:15:48;16.30;99.90
16625;DHT22;8426;48.496;9.098;2022-07-10T01:20:53;16.20;99.90
16625;DHT22;8426;48.496;9.098;2022-07-10T01:25:57;16.10;99.90
16625;DHT22;8426;48.496;9.098;2022-07-10T01:31:01;16.00;99.90
16625;DHT22;8426;48.496;9.098;2022-07-10T01:36:07;15.80;99.90
16625;DHT22;8426;48.496;9.098;2022-07-10T01:41:11;15.60;99.90
16625;DHT22;8426;48.496;9.098;2022-07-10T01:46:16;15.50;99.90
16625;DHT22;8426;48.496;9.098;2022-07-10T01:51:22;15.40;99.90
16625;DHT22;8426;48.496;9.098;2022-07-10T01:56:26;15.50;99.90
16625;DHT22;8426;48.496;9.098;2022-07-10T02:01:30;15.60;99.90
16625;DHT22;8426;48.496;9.098;2022-07-10T02:06:35;15.70;99.90
16625;DHT22;8426;48.496;9.098;2022-07-10T02:11:38;15.60;99.90
16625;DHT22;8426;48.496;9.098;2022-07-10T02:16:41;15.50;99.90
16625;DHT22;8426;48.496;9.098;2022-07-10T02:21:48;15.40;99.90
16625;DHT22;8426;48.496;9.098;2022-07-10T02:26:51;15.30;99.90
16625;DHT22;8426;48.496;9.098;2022-07-10T02:31:57;15.30;99.90
16625;DHT22;8426;48.496;9.098;2022-07-10T02:37:02;15.30;99.90
16625;DHT22;8426;48.496;9.098;2022-07-10T02:42:05;15.30;99.90
16625;DHT22;8426;48.496;9.098;2022-07-10T02:47:09;15.30;99.90
16625;DHT22;8426;48.496;9.098;2022-07-10T02:52:15;15.30;99.90
16625;DHT22;8426;48.496;9.098;2022-07-10T02:57:18;15.30;99.90
16625;DHT22;8426;48.496;9.098;2022-07-10T03:02:27;15.30;99.90
16625;DHT22;8426;48.496;9.098;2022-07-10T03:07:32;15.40;99.90
16625;DHT22;8426;48.496;9.098;2022-07-10T03:12:36;15.40;99.90
16625;DHT22;8426;48.496;9.098;2022-07-10T03:17:40;15.50;99.90
16625;DHT22;8426;48.496;9.098;2022-07-10T03:22:45;15.50;99.90
16625;DHT22;8426;48.496;9.098;2022-07-10T03:27:48;15.60;99.90
16625;DHT22;8426;48.496;9.098;2022-07-10T03:32:52;15.50;99.90
16625;DHT22;8426;48.496;9.098;2022-07-10T03:37:57;15.50;99.90
16625;DHT22;8426;48.496;9.098;2022-07-10T03:43:01;15.50;99.90
16625;DHT22;8426;48.496;9.098;2022-07-10T03:48:05;15.50;99.90
16625;DHT22;8426;48.496;9.098;2022-07-10T03:53:10;15.50;99.90
16625;DHT22;8426;48.496;9.098;2022-07-10T03:58:14;15.50;99.90
16625;DHT22;8426;48.496;9.098;2022-07-10T04:03:18;15.70;99.90
16625;DHT22;8426;48.496;9.098;2022-07-10T04:08:26;15.60;99.90
16625;DHT22;8426;48.496;9.098;2022-07-10T04:13:29;15.60;99.90
16625;DHT22;8426;48.496;9.098;2022-07-10T04:18:32;15.70;99.90
16625;DHT22;8426;48.496;9.098;2022-07-10T04:23:37;15.70;99.90
16625;DHT22;8426;48.496;9.098;2022-07-10T04:28:41;15.70;99.90
16625;DHT22;8426;48.496;9.098;2022-07-10T04:33:44;15.80;99.90
16625;DHT22;8426;48.496;9.098;2022-07-10T04:38:49;15.80;99.90
16625;DHT22;8426;48.496;9.098;2022-07-10T04:43:52;15.80;99.90
16625;DHT22;8426;48.496;9.098;2022-07-10T04:48:58;15.80;99.90
16625;DHT22;8426;48.496;9.098;2022-07-10T04:54:04;15.90;99.90
16625;DHT22;8426;48.496;9.098;2022-07-10T04:59:07;16.20;99.90
16625;DHT22;8426;48.496;9.098;2022-07-10T05:04:11;16.20;99.90
16625;DHT22;8426;48.496;9.098;2022-07-10T05:09:16;16.30;99.90
16625;DHT22;8426;48.496;9.098;2022-07-10T05:14:21;16.60;99.90
16625;DHT22;8426;48.496;9.098;2022-07-10T05:19:28;16.90;99.90
16625;DHT22;8426;48.496;9.098;2022-07-10T05:24:36;17.00;99.90
16625;DHT22;8426;48.496;9.098;2022-07-10T05:29:39;17.10;99.90
16625;DHT22;8426;48.496;9.098;2022-07-10T05:34:43;16.80;99.90
16625;DHT22;8426;48.496;9.098;2022-07-10T05:39:49;16.90;99.90
16625;DHT22;8426;48.496;9.098;2022-07-10T05:44:52;17.00;99.90
16625;DHT22;8426;48.496;9.098;2022-07-10T05:49:55;16.90;99.90
16625;DHT22;8426;48.496;9.098;2022-07-10T05:55:00;16.80;99.90
16625;DHT22;8426;48.496;9.098;2022-07-10T06:00:06;16.60;99.90
16625;DHT22;8426;48.496;9.098;2022-07-10T06:05:09;16.70;99.90
16625;DHT22;8426;48.496;9.098;2022-07-10T06:10:14;16.90;99.90
16625;DHT22;8426;48.496;9.098;2022-07-10T06:15:17;17.30;99.90
16625;DHT22;8426;48.496;9.098;2022-07-10T06:20:21;17.60;99.90
16625;DHT22;8426;48.496;9.098;2022-07-10T06:25:26;17.70;99.90
16625;DHT22;8426;48.496;9.098;2022-07-10T06:30:29;18.00;99.90
16625;DHT22;8426;48.496;9.098;2022-07-10T06:35:33;18.90;99.90
16625;DHT22;8426;48.496;9.098;2022-07-10T06:40:41;21.90;99.90
16625;DHT22;8426;48.496;9.098;2022-07-10T06:45:56;20.50;99.90
16625;DHT22;8426;48.496;9.098;2022-07-10T06:51:00;18.60;99.90
16625;DHT22;8426;48.496;9.098;2022-07-10T06:56:07;18.00;99.90
16625;DHT22;8426;48.496;9.098;2022-07-10T07:01:15;17.40;99.90
16625;DHT22;8426;48.496;9.098;2022-07-10T07:06:21;17.40;99.90
16625;DHT22;8426;48.496;9.098;2022-07-10T07:11:25;17.30;99.90
16625;DHT22;8426;48.496;9.098;2022-07-10T07:16:30;17.00;99.90
16625;DHT22;8426;48.496;9.098;2022-07-10T07:21:44;17.00;99.90
16625;DHT22;8426;48.496;9.098;2022-07-10T07:27:06;17.20;99.90
16625;DHT22;8426;48.496;9.098;2022-07-10T07:32:09;17.50;99.90
16625;DHT22;8426;48.496;9.098;2022-07-10T07:37:13;17.80;99.90
16625;DHT22;8426;48.496;9.098;2022-07-10T07:42:17;18.10;99.90
16625;DHT22;8426;48.496;9.098;2022-07-10T07:47:21;18.10;99.90
16625;DHT22;8426;48.496;9.098;2022-07-10T07:52:24;18.60;99.90
16625;DHT22;8426;48.496;9.098;2022-07-10T07:57:29;22.10;99.90
16625;DHT22;8426;48.496;9.098;2022-07-10T08:02:32;22.40;99.90
16625;DHT22;8426;48.496;9.098;2022-07-10T08:07:37;20.80;99.90
16625;DHT22;8426;48.496;9.098;2022-07-10T08:12:43;22.10;99.90
16625;DHT22;8426;48.496;9.098;2022-07-10T08:17:49;22.60;99.90
16625;DHT22;8426;48.496;9.098;2022-07-10T08:22:53;22.60;99.90
16625;DHT22;8426;48.496;9.098;2022-07-10T08:28:03;25.30;99.90
16625;DHT22;8426;48.496;9.098;2022-07-10T08:33:08;26.30;99.40
16625;DHT22;8426;48.496;9.098;2022-07-10T08:38:13;24.30;99.90
16625;DHT22;8426;48.496;9.098;2022-07-10T08:43:20;23.40;99.90
16625;DHT22;8426;48.496;9.098;2022-07-10T08:48:25;22.20;99.90
16625;DHT22;8426;48.496;9.098;2022-07-10T08:53:30;20.50;99.90
16625;DHT22;8426;48.496;9.098;2022-07-10T08:58:36;23.00;99.90
16625;DHT22;8426;48.496;9.098;2022-07-10T09:03:41;26.20;98.60
16625;DHT22;8426;48.496;9.098;2022-07-10T09:08:59;24.10;99.90
16625;DHT22;8426;48.496;9.098;2022-07-10T09:14:05;22.40;99.90
16625;DHT22;8426;48.496;9.098;2022-07-10T09:19:18;24.10;99.90
16625;DHT22;8426;48.496;9.098;2022-07-10T09:24:22;23.40;99.60
16625;DHT22;8426;48.496;9.098;2022-07-10T09:29:53;22.20;99.90
16625;DHT22;8426;48.496;9.098;2022-07-10T09:34:59;21.60;99.90
16625;DHT22;8426;48.496;9.098;2022-07-10T09:40:16;22.10;99.90
16625;DHT22;8426;48.496;9.098;2022-07-10T09:45:45;25.50;96.60
16625;DHT22;8426;48.496;9.098;2022-07-10T09:50:48;27.80;94.70
16625;DHT22;8426;48.496;9.098;2022-07-10T09:55:52;28.40;92.20
16625;DHT22;8426;48.496;9.098;2022-07-10T10:00:57;26.00;93.80
16625;DHT22;8426;48.496;9.098;2022-07-10T10:06:08;26.70;93.90
16625;DHT22;8426;48.496;9.098;2022-07-10T10:11:15;25.70;95.40
16625;DHT22;8426;48.496;9.098;2022-07-10T10:16:22;27.50;92.00
16625;DHT22;8426;48.496;9.098;2022-07-10T10:21:28;26.10;92.80
16625;DHT22;8426;48.496;9.098;2022-07-10T10:26:32;25.70;95.40
16625;DHT22;8426;48.496;9.098;2022-07-10T10:31:37;24.50;95.20
16625;DHT22;8426;48.496;9.098;2022-07-10T10:36:48;23.20;96.60
16625;DHT22;8426;48.496;9.098;2022-07-10T10:41:53;23.70;96.30
16625;DHT22;8426;48.496;9.098;2022-07-10T10:47:08;24.10;94.40
16625;DHT22;8426;48.496;9.098;2022-07-10T10:52:12;23.00;96.50
16625;DHT22;8426;48.496;9.098;2022-07-10T10:57:18;23.20;96.70
16625;DHT22;8426;48.496;9.098;2022-07-10T11:02:25;24.00;94.80
16625;DHT22;8426;48.496;9.098;2022-07-10T11:07:53;24.40;94.30
16625;DHT22;8426;48.496;9.098;2022-07-10T11:12:58;23.80;95.10
16625;DHT22;8426;48.496;9.098;2022-07-10T11:18:08;23.90;95.30
16625;DHT22;8426;48.496;9.098;2022-07-10T11:23:38;24.90;94.00
16625;DHT22;8426;48.496;9.098;2022-07-10T11:28:50;25.00;94.50
16625;DHT22;8426;48.496;9.098;2022-07-10T11:33:56;24.30;94.40
16625;DHT22;8426;48.496;9.098;2022-07-10T11:39:00;24.50;94.10
16625;DHT22;8426;48.496;9.098;2022-07-10T11:44:04;24.20;94.60
16625;DHT22;8426;48.496;9.098;2022-07-10T11:49:11;24.40;94.90
16625;DHT22;8426;48.496;9.098;2022-07-10T11:54:17;24.10;94.50
16625;DHT22;8426;48.496;9.098;2022-07-10T11:59:24;22.90;95.40
16625;DHT22;8426;48.496;9.098;2022-07-10T12:04:30;23.10;95.80
16625;DHT22;8426;48.496;9.098;2022-07-10T12:09:34;23.90;96.20
16625;DHT22;8426;48.496;9.098;2022-07-10T12:14:40;23.70;93.50
16625;DHT22;8426;48.496;9.098;2022-07-10T12:19:45;23.90;96.30
16625;DHT22;8426;48.496;9.098;2022-07-10T12:24:52;24.20;92.90
16625;DHT22;8426;48.496;9.098;2022-07-10T12:30:00;24.10;95.80
16625;DHT22;8426;48.496;9.098;2022-07-10T12:35:06;23.60;93.40
16625;DHT22;8426;48.496;9.098;2022-07-10T12:40:34;23.60;95.00
16625;DHT22;8426;48.496;9.098;2022-07-10T12:45:37;23.60;93.30
16625;DHT22;8426;48.496;9.098;2022-07-10T12:50:42;23.60;94.30
16625;DHT22;8426;48.496;9.098;2022-07-10T12:55:46;23.60;93.90
16625;DHT22;8426;48.496;9.098;2022-07-10T13:00:49;23.50;94.20
16625;DHT22;8426;48.496;9.098;2022-07-10T13:05:54;23.70;93.80
16625;DHT22;8426;48.496;9.098;2022-07-10T13:11:00;23.80;92.60
16625;DHT22;8426;48.496;9.098;2022-07-10T13:16:04;23.70;93.50
16625;DHT22;8426;48.496;9.098;2022-07-10T13:21:09;23.30;92.40
16625;DHT22;8426;48.496;9.098;2022-07-10T13:26:14;23.10;93.40
16625;DHT22;8426;48.496;9.098;2022-07-10T13:31:17;22.70;92.40
16625;DHT22;8426;48.496;9.098;2022-07-10T13:36:22;22.80;93.80
16625;DHT22;8426;48.496;9.098;2022-07-10T13:41:27;22.90;93.20
16625;DHT22;8426;48.496;9.098;2022-07-10T13:46:31;22.90;92.30
16625;DHT22;8426;48.496;9.098;2022-07-10T13:51:41;22.70;92.50
16625;DHT22;8426;48.496;9.098;2022-07-10T13:56:45;22.60;93.00
16625;DHT22;8426;48.496;9.098;2022-07-10T14:01:48;22.60;93.40
16625;DHT22;8426;48.496;9.098;2022-07-10T14:06:53;22.50;92.90
16625;DHT22;8426;48.496;9.098;2022-07-10T14:11:57;22.60;91.40
16625;DHT22;8426;48.496;9.098;2022-07-10T14:17:00;22.70;91.30
16625;DHT22;8426;48.496;9.098;2022-07-10T14:22:05;22.80;94.40
16625;DHT22;8426;48.496;9.098;2022-07-10T14:27:09;22.50;92.00
16625;DHT22;8426;48.496;9.098;2022-07-10T14:32:13;22.50;92.20
16625;DHT22;8426;48.496;9.098;2022-07-10T14:37:17;22.50;93.10
16625;DHT22;8426;48.496;9.098;2022-07-10T14:42:21;22.80;92.60
16625;DHT22;8426;48.496;9.098;2022-07-10T14:47:24;22.80;93.40
16625;DHT22;8426;48.496;9.098;2022-07-10T14:52:33;22.70;92.70
16625;DHT22;8426;48.496;9.098;2022-07-10T14:57:38;22.70;92.00
16625;DHT22;8426;48.496;9.098;2022-07-10T15:02:42;22.30;92.80
16625;DHT22;8426;48.496;9.098;2022-07-10T15:07:47;22.00;92.30
16625;DHT22;8426;48.496;9.098;2022-07-10T15:12:50;22.10;92.70
16625;DHT22;8426;48.496;9.098;2022-07-10T15:17:54;22.10;92.50
16625;DHT22;8426;48.496;9.098;2022-07-10T15:22:59;22.00;93.00
16625;DHT22;8426;48.496;9.098;2022-07-10T15:28:03;22.00;94.00
16625;DHT22;8426;48.496;9.098;2022-07-10T15:33:07;22.00;93.60
16625;DHT22;8426;48.496;9.098;2022-07-10T15:38:12;21.90;92.20
16625;DHT22;8426;48.496;9.098;2022-07-10T15:43:23;21.60;92.90
16625;DHT22;8426;48.496;9.098;2022-07-10T15:48:45;21.30;94.00
16625;DHT22;8426;48.496;9.098;2022-07-10T15:54:15;21.10;94.00
16625;DHT22;8426;48.496;9.098;2022-07-10T15:59:22;21.20;94.10
16625;DHT22;8426;48.496;9.098;2022-07-10T16:04:52;20.90;93.80
16625;DHT22;8426;48.496;9.098;2022-07-10T16:10:27;20.70;93.60
16625;DHT22;8426;48.496;9.098;2022-07-10T16:15:42;21.10;94.40
16625;DHT22;8426;48.496;9.098;2022-07-10T16:21:01;20.80;94.10
16625;DHT22;8426;48.496;9.098;2022-07-10T16:26:18;20.80;94.60
16625;DHT22;8426;48.496;9.098;2022-07-10T16:31:36;20.50;93.50
16625;DHT22;8426;48.496;9.098;2022-07-10T16:36:48;20.50;94.20
16625;DHT22;8426;48.496;9.098;2022-07-10T16:42:00;20.50;93.50
16625;DHT22;8426;48.496;9.098;2022-07-10T16:47:04;20.60;94.40
16625;DHT22;8426;48.496;9.098;2022-07-10T16:52:07;20.50;95.00
16625;DHT22;8426;48.496;9.098;2022-07-10T16:57:12;20.00;94.90
16625;DHT22;8426;48.496;9.098;2022-07-10T17:02:17;20.10;95.40
16625;DHT22;8426;48.496;9.098;2022-07-10T17:07:20;20.20;93.90
16625;DHT22;8426;48.496;9.098;2022-07-10T17:12:25;20.10;94.70
16625;DHT22;8426;48.496;9.098;2022-07-10T17:17:29;20.10;95.50
16625;DHT22;8426;48.496;9.098;2022-07-10T17:22:32;19.80;95.20
16625;DHT22;8426;48.496;9.098;2022-07-10T17:27:37;19.50;95.20
16625;DHT22;8426;48.496;9.098;2022-07-10T17:32:40;19.40;96.20
16625;DHT22;8426;48.496;9.098;2022-07-10T17:37:44;19.20;95.70
16625;DHT22;8426;48.496;9.098;2022-07-10T17:42:49;19.00;96.00
16625;DHT22;8426;48.496;9.098;2022-07-10T17:47:52;19.00;96.50
16625;DHT22;8426;48.496;9.098;2022-07-10T17:52:56;18.90;96.90
16625;DHT22;8426;48.496;9.098;2022-07-10T17:58:01;18.70;96.70
16625;DHT22;8426;48.496;9.098;2022-07-10T18:03:06;18.60;96.30
16625;DHT22;8426;48.496;9.098;2022-07-10T18:08:17;18.40;96.60
16625;DHT22;8426;48.496;9.098;2022-07-10T18:13:28;18.30;97.00
16625;DHT22;8426;48.496;9.098;2022-07-10T18:18:35;18.20;97.50
16625;DHT22;8426;48.496;9.098;2022-07-10T18:23:39;18.10;98.30
16625;DHT22;8426;48.496;9.098;2022-07-10T18:28:45;18.00;98.70
16625;DHT22;8426;48.496;9.098;2022-07-10T18:33:50;17.80;99.10
16625;DHT22;8426;48.496;9.098;2022-07-10T18:39:11;17.60;99.60
16625;DHT22;8426;48.496;9.098;2022-07-10T18:44:20;17.40;99.90
16625;DHT22;8426;48.496;9.098;2022-07-10T18:49:29;17.20;99.90
16625;DHT22;8426;48.496;9.098;2022-07-10T18:54:33;17.10;99.90
16625;DHT22;8426;48.496;9.098;2022-07-10T18:59:41;16.90;99.90
16625;DHT22;8426;48.496;9.098;2022-07-10T19:04:44;16.80;99.90
16625;DHT22;8426;48.496;9.098;2022-07-10T19:09:48;16.70;99.90
16625;DHT22;8426;48.496;9.098;2022-07-10T19:14:53;16.50;99.90
16625;DHT22;8426;48.496;9.098;2022-07-10T19:19:56;16.30;99.90
16625;DHT22;8426;48.496;9.098;2022-07-10T19:24:59;16.10;99.90
16625;DHT22;8426;48.496;9.098;2022-07-10T19:30:05;16.00;99.90
16625;DHT22;8426;48.496;9.098;2022-07-10T19:35:12;15.80;99.90
16625;DHT22;8426;48.496;9.098;2022-07-10T19:40:15;15.60;99.90
16625;DHT22;8426;48.496;9.098;2022-07-10T19:45:21;15.60;99.90
16625;DHT22;8426;48.496;9.098;2022-07-10T19:50:25;15.40;99.90
16625;DHT22;8426;48.496;9.098;2022-07-10T19:55:28;15.30;99.90
16625;DHT22;8426;48.496;9.098;2022-07-10T20:00:33;15.10;99.90
16625;DHT22;8426;48.496;9.098;2022-07-10T20:05:36;14.90;99.90
16625;DHT22;8426;48.496;9.098;2022-07-10T20:10:43;14.80;99.90
16625;DHT22;8426;48.496;9.098;2022-07-10T20:15:47;14.60;99.90
16625;DHT22;8426;48.496;9.098;2022-07-10T20:21:08;14.40;99.90
16625;DHT22;8426;48.496;9.098;2022-07-10T20:26:12;14.10;99.90
16625;DHT22;8426;48.496;9.098;2022-07-10T20:31:17;13.90;99.90
16625;DHT22;8426;48.496;9.098;2022-07-10T20:36:20;13.80;99.90
16625;DHT22;8426;48.496;9.098;2022-07-10T20:41:42;13.60;99.90
16625;DHT22;8426;48.496;9.098;2022-07-10T20:46:47;13.50;99.90
16625;DHT22;8426;48.496;9.098;2022-07-10T20:51:52;13.40;99.90
16625;DHT22;8426;48.496;9.098;2022-07-10T20:56:56;13.30;99.90
16625;DHT22;8426;48.496;9.098;2022-07-10T21:02:01;13.00;99.90
16625;DHT22;8426;48.496;9.098;2022-07-10T21:07:05;12.70;99.90
16625;DHT22;8426;48.496;9.098;2022-07-10T21:12:09;12.60;99.90
16625;DHT22;8426;48.496;9.098;2022-07-10T21:17:14;12.60;99.90
16625;DHT22;8426;48.496;9.098;2022-07-10T21:22:17;12.60;99.90
16625;DHT22;8426;48.496;9.098;2022-07-10T21:27:27;12.70;99.90
16625;DHT22;8426;48.496;9.098;2022-07-10T21:32:32;12.80;99.90
16625;DHT22;8426;48.496;9.098;2022-07-10T21:37:35;12.80;99.90
16625;DHT22;8426;48.496;9.098;2022-07-10T21:42:38;12.70;99.90
16625;DHT22;8426;48.496;9.098;2022-07-10T21:47:47;12.60;99.90
16625;DHT22;8426;48.496;9.098;2022-07-10T21:52:51;12.60;99.90
16625;DHT22;8426;48.496;9.098;2022-07-10T21:57:54;12.50;99.90
16625;DHT22;8426;48.496;9.098;2022-07-10T22:03:00;12.40;99.90
16625;DHT22;8426;48.496;9.098;2022-07-10T22:08:04;12.10;99.90
16625;DHT22;8426;48.496;9.098;2022-07-10T22:13:07;12.00;99.90
16625;DHT22;8426;48.496;9.098;2022-07-10T22:18:12;11.80;99.90
16625;DHT22;8426;48.496;9.098;2022-07-10T22:23:15;11.80;99.90
16625;DHT22;8426;48.496;9.098;2022-07-10T22:28:18;11.70;99.90
16625;DHT22;8426;48.496;9.098;2022-07-10T22:33:23;11.70;99.90
16625;DHT22;8426;48.496;9.098;2022-07-10T22:38:27;11.60;99.90
16625;DHT22;8426;48.496;9.098;2022-07-10T22:43:30;11.40;99.90
16625;DHT22;8426;48.496;9.098;2022-07-10T22:48:35;11.20;99.90
16625;DHT22;8426;48.496;9.098;2022-07-10T22:53:38;11.10;99.90
16625;DHT22;8426;48.496;9.098;2022-07-10T22:58:42;11.00;99.90
16625;DHT22;8426;48.496;9.098;2022-07-10T23:03:47;10.90;99.90
16625;DHT22;8426;48.496;9.098;2022-07-10T23:08:51;10.80;99.90
16625;DHT22;8426;48.496;9.098;2022-07-10T23:13:54;10.70;99.90
16625;DHT22;8426;48.496;9.098;2022-07-10T23:18:59;10.60;99.90
16625;DHT22;8426;48.496;9.098;2022-07-10T23:24:03;10.60;99.90
16625;DHT22;8426;48.496;9.098;2022-07-10T23:29:06;10.50;99.90
16625;DHT22;8426;48.496;9.098;2022-07-10T23:34:11;10.50;99.90
16625;DHT22;8426;48.496;9.098;2022-07-10T23:39:14;10.40;99.90
16625;DHT22;8426;48.496;9.098;2022-07-10T23:44:18;10.40;99.90
16625;DHT22;8426;48.496;9.098;2022-07-10T23:49:22;10.20;99.90
16625;DHT22;8426;48.496;9.098;2022-07-10T23:54:43;10.20;99.90
16625;DHT22;8426;48.496;9.098;2022-07-10T23:59:48;10.20;99.90
